createdAt,value
2018-01-29T00:00:13.466Z,977.64
2018-01-29T00:01:13.309Z,977.63
2018-01-29T00:02:13.266Z,977.63
2018-01-29T00:03:13.232Z,977.59
2018-01-29T00:04:13.184Z,977.58
2018-01-29T00:05:13.143Z,977.57
2018-01-29T00:06:13.333Z,977.58
2018-01-29T00:07:13.061Z,977.60
2018-01-29T00:08:13.021Z,977.56
2018-01-29T00:09:13.016Z,977.59
2018-01-29T00:10:12.939Z,977.53
2018-01-29T00:11:12.898Z,977.51
2018-01-29T00:12:12.856Z,977.51
2018-01-29T00:13:12.819Z,977.51
2018-01-29T00:14:12.774Z,977.55
2018-01-29T00:15:12.851Z,977.54
2018-01-29T00:16:12.691Z,977.54
2018-01-29T00:17:12.826Z,977.54
2018-01-29T00:18:12.610Z,977.56
2018-01-29T00:19:12.569Z,977.52
2018-01-29T00:20:12.527Z,977.51
2018-01-29T00:21:12.487Z,977.52
2018-01-29T00:22:12.445Z,977.49
2018-01-29T00:23:12.405Z,977.49
2018-01-29T00:24:12.384Z,977.47
2018-01-29T00:25:12.321Z,977.43
2018-01-29T00:26:12.665Z,977.46
2018-01-29T00:27:12.241Z,977.44
2018-01-29T00:28:12.200Z,977.45
2018-01-29T00:29:12.229Z,977.42
2018-01-29T00:30:12.117Z,977.40
2018-01-29T00:31:12.078Z,977.40
2018-01-29T00:32:12.037Z,977.38
2018-01-29T00:33:11.994Z,977.39
2018-01-29T00:34:11.952Z,977.39
2018-01-29T00:35:11.932Z,977.37
2018-01-29T00:36:11.871Z,977.38
2018-01-29T00:37:12.046Z,977.40
2018-01-29T00:38:11.788Z,977.37
2018-01-29T00:39:11.748Z,977.39
2018-01-29T00:40:11.791Z,977.39
2018-01-29T00:41:11.664Z,977.42
2018-01-29T00:42:11.624Z,977.41
2018-01-29T00:43:11.583Z,977.40
2018-01-29T00:44:11.560Z,977.40
2018-01-29T00:45:11.500Z,977.44
2018-01-29T00:46:11.637Z,977.41
2018-01-29T00:47:11.419Z,977.38
2018-01-29T00:48:11.379Z,977.41
2018-01-29T00:49:11.443Z,977.43
2018-01-29T00:50:11.295Z,977.46
2018-01-29T00:51:11.255Z,977.47
2018-01-29T00:52:11.214Z,977.50
2018-01-29T00:53:11.172Z,977.45
2018-01-29T00:54:11.132Z,977.47
2018-01-29T00:55:11.109Z,977.48
2018-01-29T00:56:11.049Z,977.47
2018-01-29T00:57:11.244Z,977.48
2018-01-29T00:58:10.966Z,977.51
2018-01-29T00:59:10.927Z,977.52
2018-01-29T01:00:10.906Z,977.48
2018-01-29T01:01:10.843Z,977.51
2018-01-29T01:02:10.802Z,977.50
2018-01-29T01:03:10.762Z,977.49
2018-01-29T01:04:10.739Z,977.53
2018-01-29T01:05:10.680Z,977.50
2018-01-29T01:06:10.862Z,977.47
2018-01-29T01:07:10.597Z,977.47
2018-01-29T01:08:10.557Z,977.50
2018-01-29T01:09:10.515Z,977.45
2018-01-29T01:10:10.473Z,977.48
2018-01-29T01:11:10.431Z,977.48
2018-01-29T01:12:10.392Z,977.48
2018-01-29T01:13:10.351Z,977.52
2018-01-29T01:14:10.310Z,977.48
2018-01-29T01:15:10.308Z,977.46
2018-01-29T01:16:10.229Z,977.49
2018-01-29T01:17:10.363Z,977.47
2018-01-29T01:18:10.143Z,977.46
2018-01-29T01:19:10.105Z,977.44
2018-01-29T01:20:10.115Z,977.48
2018-01-29T01:21:10.026Z,977.51
2018-01-29T01:22:09.981Z,977.50
2018-01-29T01:23:09.939Z,977.51
2018-01-29T01:24:09.898Z,977.51
2018-01-29T01:25:09.856Z,977.53
2018-01-29T01:26:09.833Z,977.52
2018-01-29T01:27:09.777Z,977.51
2018-01-29T01:28:09.974Z,977.47
2018-01-29T01:29:09.695Z,977.51
2018-01-29T01:30:09.651Z,977.48
2018-01-29T01:31:09.610Z,977.48
2018-01-29T01:32:09.569Z,977.47
2018-01-29T01:33:09.529Z,977.48
2018-01-29T01:34:09.487Z,977.49
2018-01-29T01:35:09.469Z,977.46
2018-01-29T01:36:09.406Z,977.42
2018-01-29T01:37:09.585Z,977.43
2018-01-29T01:38:09.322Z,977.48
2018-01-29T01:39:09.282Z,977.43
2018-01-29T01:40:09.327Z,977.46
2018-01-29T01:41:09.199Z,977.44
2018-01-29T01:42:09.157Z,977.47
2018-01-29T01:43:09.118Z,977.47
2018-01-29T01:44:09.095Z,977.45
2018-01-29T01:45:09.035Z,977.42
2018-01-29T01:46:09.189Z,977.45
2018-01-29T01:47:08.952Z,977.39
2018-01-29T01:48:08.912Z,977.41
2018-01-29T01:49:08.978Z,977.38
2018-01-29T01:50:08.832Z,977.37
2018-01-29T01:51:08.787Z,977.37
2018-01-29T01:52:08.747Z,977.32
2018-01-29T01:53:08.705Z,977.30
2018-01-29T01:54:08.664Z,977.26
2018-01-29T01:55:08.622Z,977.25
2018-01-29T01:56:08.581Z,977.20
2018-01-29T01:57:08.897Z,977.19
2018-01-29T01:58:08.499Z,977.18
2018-01-29T01:59:08.459Z,977.12
2018-01-29T02:00:08.418Z,977.13
2018-01-29T02:01:08.372Z,977.07
2018-01-29T02:02:08.334Z,977.06
2018-01-29T02:03:08.295Z,977.09
2018-01-29T02:04:08.253Z,977.08
2018-01-29T02:05:08.212Z,977.02
2018-01-29T02:06:08.386Z,977.03
2018-01-29T02:07:08.129Z,977.05
2018-01-29T02:08:08.092Z,977.04
2018-01-29T02:09:08.090Z,977.01
2018-01-29T02:10:08.010Z,976.96
2018-01-29T02:11:07.967Z,976.97
2018-01-29T02:12:07.927Z,976.95
2018-01-29T02:13:07.880Z,976.93
2018-01-29T02:14:07.846Z,976.92
2018-01-29T02:15:08.008Z,976.90
2018-01-29T02:16:07.759Z,976.88
2018-01-29T02:17:07.717Z,976.88
2018-01-29T02:18:07.741Z,976.97
2018-01-29T02:19:07.636Z,976.97
2018-01-29T02:20:07.652Z,976.88
2018-01-29T02:21:07.554Z,976.90
2018-01-29T02:22:07.534Z,976.89
2018-01-29T02:23:07.471Z,976.88
2018-01-29T02:24:07.621Z,976.87
2018-01-29T02:25:07.394Z,976.89
2018-01-29T02:26:07.349Z,976.84
2018-01-29T02:27:07.392Z,976.81
2018-01-29T02:28:07.261Z,976.84
2018-01-29T02:29:07.226Z,976.80
2018-01-29T02:30:07.187Z,976.84
2018-01-29T02:31:07.146Z,976.80
2018-01-29T02:32:07.104Z,976.76
2018-01-29T02:33:07.230Z,976.75
2018-01-29T02:34:07.020Z,976.75
2018-01-29T02:35:06.980Z,976.78
2018-01-29T02:36:07.043Z,976.75
2018-01-29T02:37:06.901Z,976.78
2018-01-29T02:38:06.855Z,976.81
2018-01-29T02:39:06.814Z,976.79
2018-01-29T02:40:06.774Z,976.82
2018-01-29T02:41:06.728Z,976.79
2018-01-29T02:42:06.925Z,976.74
2018-01-29T02:43:06.653Z,976.79
2018-01-29T02:44:06.608Z,976.76
2018-01-29T02:45:06.582Z,976.77
2018-01-29T02:46:06.528Z,976.78
2018-01-29T02:47:06.487Z,976.80
2018-01-29T02:48:06.445Z,976.75
2018-01-29T02:49:06.421Z,976.79
2018-01-29T02:50:06.363Z,976.83
2018-01-29T02:51:06.321Z,976.81
2018-01-29T02:52:06.280Z,976.83
2018-01-29T02:53:06.430Z,976.80
2018-01-29T02:54:06.202Z,976.86
2018-01-29T02:55:06.156Z,976.81
2018-01-29T02:56:06.155Z,976.85
2018-01-29T02:57:06.074Z,976.83
2018-01-29T02:58:06.029Z,976.84
2018-01-29T02:59:05.996Z,976.80
2018-01-29T03:00:05.969Z,976.81
2018-01-29T03:01:05.908Z,976.81
2018-01-29T03:02:05.887Z,976.81
2018-01-29T03:03:05.828Z,976.84
2018-01-29T03:04:06.052Z,976.88
2018-01-29T03:05:05.745Z,976.86
2018-01-29T03:06:05.704Z,976.85
2018-01-29T03:07:05.715Z,976.83
2018-01-29T03:08:05.622Z,976.81
2018-01-29T03:09:05.582Z,976.83
2018-01-29T03:10:05.541Z,976.81
2018-01-29T03:11:05.500Z,976.82
2018-01-29T03:12:05.463Z,976.81
2018-01-29T03:13:05.644Z,976.82
2018-01-29T03:14:05.376Z,976.85
2018-01-29T03:15:05.335Z,976.87
2018-01-29T03:16:05.368Z,976.80
2018-01-29T03:17:05.253Z,976.90
2018-01-29T03:18:05.212Z,976.83
2018-01-29T03:19:05.170Z,976.84
2018-01-29T03:20:05.130Z,976.83
2018-01-29T03:21:05.088Z,976.84
2018-01-29T03:22:05.047Z,976.83
2018-01-29T03:23:05.007Z,976.87
2018-01-29T03:24:05.151Z,976.84
2018-01-29T03:25:04.924Z,976.86
2018-01-29T03:26:04.883Z,976.88
2018-01-29T03:27:04.930Z,976.91
2018-01-29T03:28:04.800Z,976.90
2018-01-29T03:29:04.759Z,976.89
2018-01-29T03:30:04.718Z,976.87
2018-01-29T03:31:04.677Z,976.87
2018-01-29T03:32:04.633Z,976.86
2018-01-29T03:33:04.771Z,976.88
2018-01-29T03:34:04.556Z,976.88
2018-01-29T03:35:04.514Z,976.87
2018-01-29T03:36:04.473Z,976.88
2018-01-29T03:37:04.429Z,976.87
2018-01-29T03:38:04.390Z,976.86
2018-01-29T03:39:04.348Z,976.91
2018-01-29T03:40:04.326Z,976.89
2018-01-29T03:41:04.266Z,976.89
2018-01-29T03:42:04.465Z,976.92
2018-01-29T03:43:04.189Z,976.89
2018-01-29T03:44:04.144Z,976.91
2018-01-29T03:45:04.129Z,976.90
2018-01-29T03:46:04.066Z,976.91
2018-01-29T03:47:04.017Z,976.94
2018-01-29T03:48:03.982Z,976.92
2018-01-29T03:49:03.954Z,976.97
2018-01-29T03:50:03.896Z,976.96
2018-01-29T03:51:03.853Z,976.97
2018-01-29T03:52:03.815Z,977.00
2018-01-29T03:53:03.968Z,976.97
2018-01-29T03:54:03.730Z,977.00
2018-01-29T03:55:03.689Z,976.96
2018-01-29T03:56:03.650Z,976.93
2018-01-29T03:57:03.607Z,976.93
2018-01-29T03:58:03.566Z,976.92
2018-01-29T03:59:03.524Z,976.90
2018-01-29T04:00:03.503Z,976.87
2018-01-29T04:01:03.446Z,976.89
2018-01-29T04:02:03.575Z,976.88
2018-01-29T04:03:03.360Z,976.87
2018-01-29T04:04:03.321Z,976.89
2018-01-29T04:05:03.341Z,976.90
2018-01-29T04:06:03.236Z,976.88
2018-01-29T04:07:03.199Z,976.91
2018-01-29T04:08:03.161Z,976.90
2018-01-29T04:09:03.128Z,976.87
2018-01-29T04:10:03.070Z,976.84
2018-01-29T04:11:03.092Z,976.87
2018-01-29T04:12:02.989Z,976.84
2018-01-29T04:13:03.183Z,976.91
2018-01-29T04:14:02.906Z,976.88
2018-01-29T04:15:02.866Z,976.90
2018-01-29T04:16:02.904Z,976.84
2018-01-29T04:17:02.782Z,976.90
2018-01-29T04:18:02.741Z,976.90
2018-01-29T04:19:02.699Z,976.92
2018-01-29T04:20:02.663Z,976.89
2018-01-29T04:21:02.619Z,976.92
2018-01-29T04:22:02.594Z,976.94
2018-01-29T04:23:02.535Z,976.93
2018-01-29T04:24:02.679Z,976.97
2018-01-29T04:25:02.452Z,976.99
2018-01-29T04:26:02.411Z,976.97
2018-01-29T04:27:02.465Z,976.99
2018-01-29T04:28:02.327Z,977.01
2018-01-29T04:29:02.288Z,977.01
2018-01-29T04:30:02.247Z,977.00
2018-01-29T04:31:02.206Z,976.99
2018-01-29T04:32:02.165Z,976.98
2018-01-29T04:33:02.295Z,976.99
2018-01-29T04:34:02.081Z,976.97
2018-01-29T04:35:02.041Z,976.96
2018-01-29T04:36:02.015Z,976.95
2018-01-29T04:37:01.958Z,976.95
2018-01-29T04:38:01.916Z,976.95
2018-01-29T04:39:01.875Z,976.94
2018-01-29T04:40:01.850Z,976.96
2018-01-29T04:41:01.790Z,976.88
2018-01-29T04:42:01.769Z,976.95
2018-01-29T04:43:01.711Z,976.91
2018-01-29T04:44:02.013Z,976.90
2018-01-29T04:45:01.624Z,976.91
2018-01-29T04:46:01.585Z,976.91
2018-01-29T04:47:01.544Z,976.88
2018-01-29T04:48:01.505Z,976.87
2018-01-29T04:49:01.461Z,976.90
2018-01-29T04:50:01.420Z,976.90
2018-01-29T04:51:01.381Z,976.83
2018-01-29T04:52:01.338Z,976.87
2018-01-29T04:53:01.502Z,976.87
2018-01-29T04:54:01.254Z,976.87
2018-01-29T04:55:01.256Z,976.85
2018-01-29T04:56:01.228Z,976.82
2018-01-29T04:57:01.132Z,976.80
2018-01-29T04:58:01.090Z,976.80
2018-01-29T04:59:01.052Z,976.82
2018-01-29T05:00:01.030Z,976.74
2018-01-29T05:01:00.965Z,976.80
2018-01-29T05:02:00.944Z,976.70
2018-01-29T05:03:00.884Z,976.71
2018-01-29T05:04:01.007Z,976.71
2018-01-29T05:05:00.803Z,976.68
2018-01-29T05:06:00.760Z,976.65
2018-01-29T05:07:00.722Z,976.67
2018-01-29T05:08:00.680Z,976.67
2018-01-29T05:09:00.643Z,976.67
2018-01-29T05:10:00.599Z,976.67
2018-01-29T05:11:00.556Z,976.67
2018-01-29T05:12:00.515Z,976.66
2018-01-29T05:13:00.474Z,976.69
2018-01-29T05:14:00.434Z,976.71
2018-01-29T05:15:00.629Z,976.69
2018-01-29T05:16:00.353Z,976.67
2018-01-29T05:17:00.311Z,976.69
2018-01-29T05:18:00.369Z,976.74
2018-01-29T05:19:00.229Z,976.71
2018-01-29T05:20:00.187Z,976.70
2018-01-29T05:21:00.149Z,976.78
2018-01-29T05:22:00.107Z,976.74
2018-01-29T05:23:00.103Z,976.72
2018-01-29T05:24:00.027Z,976.67
2018-01-29T05:24:59.985Z,976.63
2018-01-29T05:26:00.132Z,976.65
2018-01-29T05:26:59.901Z,976.63
2018-01-29T05:27:59.862Z,976.62
2018-01-29T05:28:59.914Z,976.64
2018-01-29T05:29:59.779Z,976.65
2018-01-29T05:30:59.741Z,976.65
2018-01-29T05:31:59.700Z,976.71
2018-01-29T05:32:59.660Z,976.72
2018-01-29T05:33:59.617Z,976.69
2018-01-29T05:34:59.745Z,976.71
2018-01-29T05:35:59.536Z,976.69
2018-01-29T05:36:59.501Z,976.76
2018-01-29T05:37:59.459Z,976.71
2018-01-29T05:38:59.418Z,976.75
2018-01-29T05:39:59.371Z,976.79
2018-01-29T05:40:59.333Z,976.81
2018-01-29T05:41:59.287Z,976.88
2018-01-29T05:42:59.252Z,976.93
2018-01-29T05:43:59.437Z,976.97
2018-01-29T05:44:59.169Z,976.96
2018-01-29T05:45:59.129Z,976.98
2018-01-29T05:46:59.113Z,976.95
2018-01-29T05:47:59.048Z,976.97
2018-01-29T05:48:59.009Z,976.99
2018-01-29T05:49:58.968Z,977.00
2018-01-29T05:50:58.927Z,976.98
2018-01-29T05:51:58.887Z,977.05
2018-01-29T05:52:59.048Z,977.07
2018-01-29T05:53:58.806Z,977.05
2018-01-29T05:54:58.765Z,977.10
2018-01-29T05:55:58.724Z,977.04
2018-01-29T05:56:58.683Z,977.04
2018-01-29T05:57:58.649Z,977.11
2018-01-29T05:58:58.611Z,977.03
2018-01-29T05:59:58.570Z,977.04
2018-01-29T06:00:58.528Z,977.01
2018-01-29T06:01:58.482Z,976.99
2018-01-29T06:02:58.444Z,977.00
2018-01-29T06:03:58.555Z,976.98
2018-01-29T06:04:58.365Z,976.99
2018-01-29T06:05:58.320Z,977.03
2018-01-29T06:06:58.329Z,977.05
2018-01-29T06:07:58.268Z,977.02
2018-01-29T06:08:58.198Z,976.99
2018-01-29T06:09:58.153Z,976.99
2018-01-29T06:10:58.118Z,976.96
2018-01-29T06:11:58.084Z,976.96
2018-01-29T06:12:58.043Z,976.93
2018-01-29T06:13:57.998Z,976.89
2018-01-29T06:14:58.628Z,976.91
2018-01-29T06:15:57.925Z,976.87
2018-01-29T06:16:58.040Z,976.86
2018-01-29T06:17:57.841Z,976.89
2018-01-29T06:18:57.798Z,976.91
2018-01-29T06:19:57.761Z,976.92
2018-01-29T06:20:57.719Z,976.89
2018-01-29T06:21:57.681Z,976.89
2018-01-29T06:22:57.642Z,976.90
2018-01-29T06:23:57.598Z,976.89
2018-01-29T06:24:57.554Z,976.94
2018-01-29T06:25:57.515Z,976.91
2018-01-29T06:26:57.479Z,976.94
2018-01-29T06:27:57.441Z,976.87
2018-01-29T06:28:57.398Z,976.85
2018-01-29T06:29:57.354Z,976.89
2018-01-29T06:30:57.314Z,976.86
2018-01-29T06:31:57.286Z,976.91
2018-01-29T06:32:57.233Z,976.91
2018-01-29T06:33:57.371Z,976.88
2018-01-29T06:34:57.160Z,976.89
2018-01-29T06:35:57.116Z,976.95
2018-01-29T06:36:57.079Z,976.95
2018-01-29T06:37:57.031Z,976.90
2018-01-29T06:38:56.996Z,976.93
2018-01-29T06:39:56.953Z,976.91
2018-01-29T06:40:56.919Z,976.90
2018-01-29T06:41:56.877Z,976.87
2018-01-29T06:42:56.830Z,976.88
2018-01-29T06:43:56.797Z,976.85
2018-01-29T06:44:56.758Z,976.89
2018-01-29T06:45:56.731Z,976.91
2018-01-29T06:46:56.678Z,976.88
2018-01-29T06:47:56.637Z,976.87
2018-01-29T06:48:56.597Z,976.86
2018-01-29T06:49:56.552Z,976.83
2018-01-29T06:50:56.522Z,976.86
2018-01-29T06:51:56.473Z,976.85
2018-01-29T06:52:56.580Z,976.86
2018-01-29T06:53:56.390Z,976.92
2018-01-29T06:54:56.352Z,976.92
2018-01-29T06:55:56.311Z,976.90
2018-01-29T06:56:56.276Z,976.88
2018-01-29T06:57:56.239Z,976.89
2018-01-29T06:58:56.201Z,976.85
2018-01-29T06:59:56.157Z,976.87
2018-01-29T07:00:56.115Z,976.84
2018-01-29T07:01:56.076Z,976.84
2018-01-29T07:02:56.049Z,976.92
2018-01-29T07:03:55.999Z,976.90
2018-01-29T07:04:55.960Z,976.92
2018-01-29T07:05:55.917Z,976.93
2018-01-29T07:06:55.878Z,976.94
2018-01-29T07:07:55.832Z,976.98
2018-01-29T07:08:55.796Z,976.94
2018-01-29T07:09:55.756Z,976.99
2018-01-29T07:10:55.717Z,976.98
2018-01-29T07:11:55.746Z,977.01
2018-01-29T07:12:55.636Z,977.01
2018-01-29T07:13:55.598Z,977.00
2018-01-29T07:14:55.555Z,977.01
2018-01-29T07:15:55.684Z,976.99
2018-01-29T07:16:55.478Z,976.98
2018-01-29T07:17:55.436Z,977.03
2018-01-29T07:18:55.483Z,976.97
2018-01-29T07:19:55.356Z,976.98
2018-01-29T07:20:55.319Z,976.95
2018-01-29T07:21:55.280Z,976.94
2018-01-29T07:22:55.231Z,976.96
2018-01-29T07:23:55.192Z,976.97
2018-01-29T07:24:55.151Z,976.96
2018-01-29T07:25:55.116Z,976.90
2018-01-29T07:26:55.081Z,976.92
2018-01-29T07:27:55.040Z,976.95
2018-01-29T07:28:54.997Z,976.90
2018-01-29T07:29:54.957Z,976.84
2018-01-29T07:30:54.918Z,976.84
2018-01-29T07:31:54.881Z,976.80
2018-01-29T07:32:54.838Z,976.86
2018-01-29T07:33:54.800Z,976.80
2018-01-29T07:34:54.763Z,976.79
2018-01-29T07:35:54.714Z,976.76
2018-01-29T07:36:54.679Z,976.73
2018-01-29T07:37:54.641Z,976.75
2018-01-29T07:38:54.804Z,976.73
2018-01-29T07:39:54.572Z,976.71
2018-01-29T07:40:54.517Z,976.68
2018-01-29T07:41:54.478Z,976.69
2018-01-29T07:42:54.437Z,976.70
2018-01-29T07:43:54.399Z,976.69
2018-01-29T07:44:54.358Z,976.64
2018-01-29T07:45:54.319Z,976.69
2018-01-29T07:46:54.281Z,976.68
2018-01-29T07:47:54.239Z,976.66
2018-01-29T07:48:54.201Z,976.67
2018-01-29T07:49:54.175Z,976.68
2018-01-29T07:50:54.122Z,976.69
2018-01-29T07:51:54.081Z,976.68
2018-01-29T07:52:54.057Z,976.67
2018-01-29T07:53:54.001Z,976.68
2018-01-29T07:54:53.962Z,976.67
2018-01-29T07:55:53.921Z,976.65
2018-01-29T07:56:53.888Z,976.64
2018-01-29T07:57:53.843Z,976.59
2018-01-29T07:58:53.805Z,976.60
2018-01-29T07:59:53.764Z,976.59
2018-01-29T08:00:53.726Z,976.53
2018-01-29T08:01:53.925Z,976.47
2018-01-29T08:02:53.679Z,976.48
2018-01-29T08:03:53.605Z,976.47
2018-01-29T08:04:53.566Z,976.48
2018-01-29T08:05:53.528Z,976.45
2018-01-29T08:06:53.497Z,976.39
2018-01-29T08:07:53.448Z,976.38
2018-01-29T08:08:53.407Z,976.41
2018-01-29T08:09:53.380Z,976.41
2018-01-29T08:10:53.332Z,976.40
2018-01-29T08:11:53.291Z,976.37
2018-01-29T08:12:53.245Z,976.37
2018-01-29T08:13:53.208Z,976.34
2018-01-29T08:14:53.188Z,976.36
2018-01-29T08:15:53.138Z,976.38
2018-01-29T08:16:53.105Z,976.36
2018-01-29T08:17:53.058Z,976.30
2018-01-29T08:18:53.013Z,976.33
2018-01-29T08:19:52.973Z,976.29
2018-01-29T08:21:13.930Z,976.30
2018-01-29T08:21:52.895Z,976.28
2018-01-29T08:22:52.914Z,976.24
2018-01-29T08:23:52.824Z,976.25
2018-01-29T08:24:52.777Z,976.25
2018-01-29T08:25:52.737Z,976.26
2018-01-29T08:26:52.697Z,976.24
2018-01-29T08:27:52.665Z,976.19
2018-01-29T08:28:52.617Z,976.19
2018-01-29T08:29:52.574Z,976.18
2018-01-29T08:30:52.543Z,976.20
2018-01-29T08:31:52.509Z,976.20
2018-01-29T08:32:52.461Z,976.21
2018-01-29T08:33:52.421Z,976.15
2018-01-29T08:34:52.377Z,976.12
2018-01-29T08:35:52.354Z,976.13
2018-01-29T08:36:52.308Z,976.13
2018-01-29T08:37:52.262Z,976.03
2018-01-29T08:38:52.322Z,976.01
2018-01-29T08:39:52.237Z,975.97
2018-01-29T08:40:52.147Z,975.98
2018-01-29T08:41:52.108Z,975.99
2018-01-29T08:42:52.072Z,976.03
2018-01-29T08:43:52.035Z,975.98
2018-01-29T08:44:51.988Z,975.98
2018-01-29T08:45:51.953Z,975.98
2018-01-29T08:46:51.915Z,975.96
2018-01-29T08:47:51.918Z,976.01
2018-01-29T08:48:51.874Z,976.04
2018-01-29T08:49:51.856Z,976.02
2018-01-29T08:50:52.066Z,976.00
2018-01-29T08:51:51.812Z,975.99
2018-01-29T08:52:51.680Z,975.94
2018-01-29T08:53:51.903Z,976.04
2018-01-29T08:54:51.601Z,975.99
2018-01-29T08:55:51.557Z,976.02
2018-01-29T08:56:51.671Z,976.02
2018-01-29T08:57:52.167Z,976.04
2018-01-29T08:58:51.444Z,976.01
2018-01-29T08:59:51.401Z,975.98
2018-01-29T09:00:51.362Z,976.00
2018-01-29T09:01:51.384Z,976.01
2018-01-29T09:02:51.283Z,976.00
2018-01-29T09:03:51.244Z,975.97
2018-01-29T09:04:51.208Z,975.98
2018-01-29T09:05:51.170Z,975.97
2018-01-29T09:06:51.125Z,976.03
2018-01-29T09:07:51.088Z,975.97
2018-01-29T09:08:51.046Z,976.00
2018-01-29T09:09:51.022Z,975.96
2018-01-29T09:10:50.979Z,975.97
2018-01-29T09:11:50.932Z,975.91
2018-01-29T09:12:51.093Z,975.94
2018-01-29T09:13:50.856Z,975.90
2018-01-29T09:14:50.824Z,975.87
2018-01-29T09:15:50.781Z,975.84
2018-01-29T09:16:50.744Z,975.85
2018-01-29T09:17:50.694Z,975.89
2018-01-29T09:18:50.657Z,975.92
2018-01-29T09:19:50.618Z,975.96
2018-01-29T09:20:50.597Z,975.97
2018-01-29T09:21:51.318Z,975.98
2018-01-29T09:22:50.501Z,975.96
2018-01-29T09:23:50.464Z,975.94
2018-01-29T09:24:50.424Z,975.93
2018-01-29T09:25:50.387Z,975.91
2018-01-29T09:26:50.351Z,975.85
2018-01-29T09:27:50.307Z,975.81
2018-01-29T09:28:51.191Z,975.90
2018-01-29T09:29:50.229Z,975.87
2018-01-29T09:30:50.197Z,975.86
2018-01-29T09:31:50.152Z,975.90
2018-01-29T09:32:50.119Z,975.83
2018-01-29T09:33:50.076Z,975.82
2018-01-29T09:34:50.052Z,975.83
2018-01-29T09:35:50.169Z,975.86
2018-01-29T09:36:49.965Z,975.85
2018-01-29T09:37:49.922Z,975.85
2018-01-29T09:38:50.227Z,975.87
2018-01-29T09:39:49.998Z,975.79
2018-01-29T09:40:49.805Z,975.87
2018-01-29T09:41:49.761Z,975.87
2018-01-29T09:42:49.724Z,975.89
2018-01-29T09:43:49.687Z,975.90
2018-01-29T09:44:49.648Z,975.88
2018-01-29T09:45:49.613Z,975.88
2018-01-29T09:46:49.576Z,975.96
2018-01-29T09:47:49.537Z,975.93
2018-01-29T09:48:49.507Z,975.93
2018-01-29T09:49:49.697Z,975.96
2018-01-29T09:50:49.422Z,975.94
2018-01-29T09:51:49.376Z,975.90
2018-01-29T09:52:49.339Z,975.96
2018-01-29T09:53:49.613Z,976.02
2018-01-29T09:54:49.295Z,975.97
2018-01-29T09:55:49.290Z,975.94
2018-01-29T09:56:49.183Z,975.94
2018-01-29T09:57:49.187Z,975.93
2018-01-29T09:58:49.385Z,975.89
2018-01-29T09:59:49.353Z,975.90
2018-01-29T10:00:49.032Z,975.89
2018-01-29T10:01:48.998Z,975.87
2018-01-29T10:02:48.956Z,975.89
2018-01-29T10:03:48.941Z,975.87
2018-01-29T10:04:49.021Z,975.84
2018-01-29T10:06:49.713Z,975.79
2018-01-29T10:07:48.788Z,975.74
2018-01-29T10:08:48.871Z,975.72
2018-01-29T10:09:48.674Z,975.73
2018-01-29T10:10:48.644Z,975.70
2018-01-29T10:11:48.606Z,975.70
2018-01-29T10:13:09.576Z,975.69
2018-01-29T10:13:48.521Z,975.68
2018-01-29T10:14:48.484Z,975.69
2018-01-29T10:15:48.441Z,975.62
2018-01-29T10:16:48.408Z,975.60
2018-01-29T10:19:18.932Z,975.56
2018-01-29T10:20:18.870Z,975.54
2018-01-29T10:22:10.712Z,975.53
2018-01-29T10:23:10.640Z,975.52
2018-01-29T10:25:02.453Z,975.47
2018-01-29T10:26:02.444Z,975.52
2018-01-29T10:27:54.413Z,975.48
2018-01-29T10:28:54.239Z,975.47
2018-01-29T10:30:45.977Z,975.44
2018-01-29T10:31:45.921Z,975.42
2018-01-29T10:33:37.780Z,975.41
2018-01-29T10:34:37.735Z,975.37
2018-01-29T10:36:29.550Z,975.32
2018-01-29T10:37:29.495Z,975.28
2018-01-29T10:39:21.399Z,975.23
2018-01-29T10:40:21.251Z,975.20
2018-01-29T10:42:13.071Z,975.11
2018-01-29T10:43:13.012Z,975.09
2018-01-29T10:45:04.849Z,975.08
2018-01-29T10:46:04.770Z,975.07
2018-01-29T10:47:56.584Z,975.03
2018-01-29T10:48:56.565Z,974.99
2018-01-29T10:50:48.376Z,975.02
2018-01-29T10:51:48.342Z,974.94
2018-01-29T10:53:40.217Z,974.91
2018-01-29T10:54:40.170Z,974.89
2018-01-29T10:56:32.198Z,974.89
2018-01-29T10:57:31.944Z,974.87
2018-01-29T10:59:23.750Z,974.80
2018-01-29T11:00:23.699Z,974.78
2018-01-29T11:02:15.532Z,974.75
2018-01-29T11:03:15.473Z,974.70
2018-01-29T11:05:07.284Z,974.69
2018-01-29T11:06:07.235Z,974.70
2018-01-29T11:07:59.173Z,974.71
2018-01-29T11:08:58.997Z,974.71
2018-01-29T11:10:50.824Z,974.63
2018-01-29T11:11:51.268Z,974.61
2018-01-29T11:13:42.579Z,974.54
2018-01-29T11:14:42.523Z,974.55
2018-01-29T11:16:34.346Z,974.48
2018-01-29T11:17:34.284Z,974.49
2018-01-29T11:19:26.106Z,974.46
2018-01-29T11:20:26.059Z,974.44
2018-01-29T11:22:17.893Z,974.41
2018-01-29T11:23:17.814Z,974.41
2018-01-29T11:25:09.653Z,974.40
2018-01-29T11:26:09.613Z,974.37
2018-01-29T11:28:01.548Z,974.36
2018-01-29T11:29:01.404Z,974.29
2018-01-29T11:30:53.224Z,974.24
2018-01-29T11:31:53.261Z,974.22
2018-01-29T11:33:44.965Z,974.09
2018-01-29T11:34:44.913Z,974.10
2018-01-29T11:36:36.749Z,974.04
2018-01-29T11:37:36.679Z,974.03
2018-01-29T11:39:29.477Z,974.00
2018-01-29T11:40:29.433Z,973.98
2018-01-29T11:42:21.255Z,973.96
2018-01-29T11:43:21.194Z,973.92
2018-01-29T11:45:12.997Z,973.84
2018-01-29T11:46:12.950Z,973.83
2018-01-29T11:48:04.774Z,973.80
2018-01-29T11:49:04.710Z,973.78
2018-01-29T11:50:56.525Z,973.75
2018-01-29T11:51:56.468Z,973.71
2018-01-29T11:53:48.297Z,973.71
2018-01-29T11:54:48.460Z,973.63
2018-01-29T11:56:40.063Z,973.60
2018-01-29T11:57:39.996Z,973.57
2018-01-29T11:59:31.801Z,973.50
2018-01-29T12:00:31.757Z,973.45
2018-01-29T12:02:23.589Z,973.45
2018-01-29T12:03:23.526Z,973.41
2018-01-29T12:05:15.332Z,973.35
2018-01-29T12:06:15.285Z,973.37
2018-01-29T12:08:07.106Z,973.34
2018-01-29T12:09:07.044Z,973.33
2018-01-29T12:10:58.851Z,973.33
2018-01-29T12:11:58.806Z,973.31
2018-01-29T12:13:50.624Z,973.31
2018-01-29T12:14:50.561Z,973.23
2018-01-29T12:16:42.368Z,973.18
2018-01-29T12:17:42.321Z,973.19
2018-01-29T12:19:34.139Z,973.20
2018-01-29T12:20:34.101Z,973.16
2018-01-29T12:22:25.914Z,973.07
2018-01-29T12:23:25.870Z,973.01
2018-01-29T12:25:18.736Z,972.94
2018-01-29T12:26:18.674Z,972.88
2018-01-29T12:28:10.490Z,972.94
2018-01-29T12:29:10.438Z,972.87
2018-01-29T12:31:02.261Z,972.83
2018-01-29T12:32:02.408Z,972.83
2018-01-29T12:33:54.030Z,972.87
2018-01-29T12:34:53.960Z,972.85
2018-01-29T12:36:45.768Z,972.84
2018-01-29T12:37:45.720Z,972.80
2018-01-29T12:39:37.546Z,972.77
2018-01-29T12:40:37.482Z,972.76
2018-01-29T12:42:29.288Z,972.77
2018-01-29T12:43:29.246Z,972.77
2018-01-29T12:45:21.188Z,972.68
2018-01-29T12:46:21.007Z,972.73
2018-01-29T12:48:12.809Z,972.66
2018-01-29T12:49:12.766Z,972.63
2018-01-29T12:51:04.586Z,972.63
2018-01-29T12:52:04.524Z,972.59
2018-01-29T12:53:56.337Z,972.54
2018-01-29T12:54:56.287Z,972.49
2018-01-29T12:56:48.119Z,972.50
2018-01-29T12:57:48.053Z,972.48
2018-01-29T12:59:39.862Z,972.47
2018-01-29T13:00:39.811Z,972.45
2018-01-29T13:02:31.629Z,972.46
2018-01-29T13:03:31.567Z,972.43
2018-01-29T13:05:23.365Z,972.42
2018-01-29T13:06:23.333Z,972.42
2018-01-29T13:08:15.139Z,972.36
2018-01-29T13:09:15.074Z,972.36
2018-01-29T13:11:07.508Z,972.31
2018-01-29T13:12:07.033Z,972.29
2018-01-29T13:13:58.835Z,972.25
2018-01-29T13:14:58.790Z,972.24
2018-01-29T13:16:50.605Z,972.22
2018-01-29T13:17:50.542Z,972.23
2018-01-29T13:19:42.346Z,972.13
2018-01-29T13:20:42.550Z,972.09
2018-01-29T13:22:34.116Z,972.03
2018-01-29T13:23:34.059Z,972.03
2018-01-29T13:25:25.900Z,972.09
2018-01-29T13:26:25.804Z,972.05